sensor_id;sensor_type;location;lat;lon;timestamp;temperature;humidity
13521;DHT22;6832;51.186;3.236;2023-03-26T00:00:39;17.30;58.60
13521;DHT22;6832;51.186;3.236;2023-03-26T00:03:09;17.40;58.70
13521;DHT22;6832;51.186;3.236;2023-03-26T00:05:38;17.30;58.60
13521;DHT22;6832;51.186;3.236;2023-03-26T00:08:06;17.30;58.70
13521;DHT22;6832;51.186;3.236;2023-03-26T00:10:33;17.30;58.70
13521;DHT22;6832;51.186;3.236;2023-03-26T00:13:01;17.30;58.70
13521;DHT22;6832;51.186;3.236;2023-03-26T00:15:29;17.30;58.60
13521;DHT22;6832;51.186;3.236;2023-03-26T00:17:57;17.30;58.70
13521;DHT22;6832;51.186;3.236;2023-03-26T00:20:30;17.30;58.70
13521;DHT22;6832;51.186;3.236;2023-03-26T00:22:57;17.30;58.60
13521;DHT22;6832;51.186;3.236;2023-03-26T00:25:26;17.30;58.70
13521;DHT22;6832;51.186;3.236;2023-03-26T00:27:53;17.30;58.70
13521;DHT22;6832;51.186;3.236;2023-03-26T00:30:25;17.30;58.70
13521;DHT22;6832;51.186;3.236;2023-03-26T00:32:53;17.30;58.70
13521;DHT22;6832;51.186;3.236;2023-03-26T00:35:21;17.30;58.70
13521;DHT22;6832;51.186;3.236;2023-03-26T00:37:50;17.20;58.60
13521;DHT22;6832;51.186;3.236;2023-03-26T00:40:20;17.30;58.70
13521;DHT22;6832;51.186;3.236;2023-03-26T00:42:48;17.30;58.70
13521;DHT22;6832;51.186;3.236;2023-03-26T00:45:15;17.30;58.80
13521;DHT22;6832;51.186;3.236;2023-03-26T00:47:45;17.20;58.60
13521;DHT22;6832;51.186;3.236;2023-03-26T00:50:12;17.20;58.70
13521;DHT22;6832;51.186;3.236;2023-03-26T00:52:41;17.20;58.70
13521;DHT22;6832;51.186;3.236;2023-03-26T00:55:10;17.20;58.70
13521;DHT22;6832;51.186;3.236;2023-03-26T00:57:37;17.20;58.70
13521;DHT22;6832;51.186;3.236;2023-03-26T01:00:09;17.20;58.70
13521;DHT22;6832;51.186;3.236;2023-03-26T01:02:41;17.20;58.70
13521;DHT22;6832;51.186;3.236;2023-03-26T01:05:40;17.20;58.70
13521;DHT22;6832;51.186;3.236;2023-03-26T01:08:21;17.20;58.70
13521;DHT22;6832;51.186;3.236;2023-03-26T01:10:51;17.20;58.70
13521;DHT22;6832;51.186;3.236;2023-03-26T01:13:22;17.20;58.70
13521;DHT22;6832;51.186;3.236;2023-03-26T01:15:50;17.20;58.70
13521;DHT22;6832;51.186;3.236;2023-03-26T01:18:19;17.20;58.70
13521;DHT22;6832;51.186;3.236;2023-03-26T01:20:51;17.20;58.80
13521;DHT22;6832;51.186;3.236;2023-03-26T01:23:26;17.20;58.80
13521;DHT22;6832;51.186;3.236;2023-03-26T01:26:03;17.10;58.60
13521;DHT22;6832;51.186;3.236;2023-03-26T01:28:36;17.10;58.70
13521;DHT22;6832;51.186;3.236;2023-03-26T01:31:09;17.10;59.30
13521;DHT22;6832;51.186;3.236;2023-03-26T01:33:44;17.10;58.60
13521;DHT22;6832;51.186;3.236;2023-03-26T01:36:16;17.10;58.70
13521;DHT22;6832;51.186;3.236;2023-03-26T01:38:52;17.10;58.70
13521;DHT22;6832;51.186;3.236;2023-03-26T01:41:30;17.10;58.70
13521;DHT22;6832;51.186;3.236;2023-03-26T01:44:02;17.10;58.60
13521;DHT22;6832;51.186;3.236;2023-03-26T01:46:33;17.10;58.60
13521;DHT22;6832;51.186;3.236;2023-03-26T01:49:02;17.10;58.70
13521;DHT22;6832;51.186;3.236;2023-03-26T01:51:30;17.10;58.70
13521;DHT22;6832;51.186;3.236;2023-03-26T01:54:02;17.10;58.70
13521;DHT22;6832;51.186;3.236;2023-03-26T01:56:37;17.10;58.70
13521;DHT22;6832;51.186;3.236;2023-03-26T01:59:18;17.10;58.70
13521;DHT22;6832;51.186;3.236;2023-03-26T02:01:54;17.00;58.60
13521;DHT22;6832;51.186;3.236;2023-03-26T02:04:29;17.00;58.60
13521;DHT22;6832;51.186;3.236;2023-03-26T02:07:02;17.00;58.60
13521;DHT22;6832;51.186;3.236;2023-03-26T02:09:47;17.00;58.60
13521;DHT22;6832;51.186;3.236;2023-03-26T02:12:19;17.10;58.70
13521;DHT22;6832;51.186;3.236;2023-03-26T02:14:48;17.10;58.70
13521;DHT22;6832;51.186;3.236;2023-03-26T02:17:15;17.00;58.60
13521;DHT22;6832;51.186;3.236;2023-03-26T02:19:45;17.00;58.60
13521;DHT22;6832;51.186;3.236;2023-03-26T02:22:12;17.00;58.60
13521;DHT22;6832;51.186;3.236;2023-03-26T02:24:40;17.00;58.70
13521;DHT22;6832;51.186;3.236;2023-03-26T02:27:07;17.00;58.60
13521;DHT22;6832;51.186;3.236;2023-03-26T02:29:39;17.00;58.60
13521;DHT22;6832;51.186;3.236;2023-03-26T02:32:09;17.00;58.60
13521;DHT22;6832;51.186;3.236;2023-03-26T02:34:37;17.00;58.60
13521;DHT22;6832;51.186;3.236;2023-03-26T02:37:04;17.00;59.30
13521;DHT22;6832;51.186;3.236;2023-03-26T02:39:34;17.00;58.70
13521;DHT22;6832;51.186;3.236;2023-03-26T02:42:03;17.00;58.60
13521;DHT22;6832;51.186;3.236;2023-03-26T02:44:30;17.00;58.60
13521;DHT22;6832;51.186;3.236;2023-03-26T02:46:59;17.00;58.60
13521;DHT22;6832;51.186;3.236;2023-03-26T02:49:26;16.90;58.60
13521;DHT22;6832;51.186;3.236;2023-03-26T02:51:56;17.00;58.60
13521;DHT22;6832;51.186;3.236;2023-03-26T02:54:23;16.90;58.60
13521;DHT22;6832;51.186;3.236;2023-03-26T02:56:52;16.90;58.60
13521;DHT22;6832;51.186;3.236;2023-03-26T02:59:19;16.90;58.60
13521;DHT22;6832;51.186;3.236;2023-03-26T03:01:46;16.90;58.60
13521;DHT22;6832;51.186;3.236;2023-03-26T03:04:15;16.90;58.60
13521;DHT22;6832;51.186;3.236;2023-03-26T03:06:43;16.90;58.60
13521;DHT22;6832;51.186;3.236;2023-03-26T03:09:11;16.90;58.60
13521;DHT22;6832;51.186;3.236;2023-03-26T03:11:39;16.90;58.60
13521;DHT22;6832;51.186;3.236;2023-03-26T03:14:06;16.90;58.60
13521;DHT22;6832;51.186;3.236;2023-03-26T03:16:33;16.90;58.60
13521;DHT22;6832;51.186;3.236;2023-03-26T03:19:00;16.90;58.60
13521;DHT22;6832;51.186;3.236;2023-03-26T03:21:29;16.90;58.60
13521;DHT22;6832;51.186;3.236;2023-03-26T03:23:56;16.90;58.60
13521;DHT22;6832;51.186;3.236;2023-03-26T03:26:24;16.90;58.60
13521;DHT22;6832;51.186;3.236;2023-03-26T03:28:55;16.90;58.60
13521;DHT22;6832;51.186;3.236;2023-03-26T03:31:23;16.80;58.50
13521;DHT22;6832;51.186;3.236;2023-03-26T03:33:51;16.90;58.60
13521;DHT22;6832;51.186;3.236;2023-03-26T03:36:19;16.90;58.60
13521;DHT22;6832;51.186;3.236;2023-03-26T03:38:49;16.90;58.60
13521;DHT22;6832;51.186;3.236;2023-03-26T03:41:16;16.80;58.50
13521;DHT22;6832;51.186;3.236;2023-03-26T03:43:43;16.80;58.50
13521;DHT22;6832;51.186;3.236;2023-03-26T03:46:10;16.80;58.50
13521;DHT22;6832;51.186;3.236;2023-03-26T03:48:37;16.90;58.60
13521;DHT22;6832;51.186;3.236;2023-03-26T03:51:12;16.90;58.60
13521;DHT22;6832;51.186;3.236;2023-03-26T03:53:39;16.90;58.60
13521;DHT22;6832;51.186;3.236;2023-03-26T03:56:08;16.90;58.60
13521;DHT22;6832;51.186;3.236;2023-03-26T03:58:35;16.80;58.50
13521;DHT22;6832;51.186;3.236;2023-03-26T04:01:02;16.80;58.60
13521;DHT22;6832;51.186;3.236;2023-03-26T04:03:29;16.80;58.60
13521;DHT22;6832;51.186;3.236;2023-03-26T04:06:03;16.80;58.60
13521;DHT22;6832;51.186;3.236;2023-03-26T04:08:32;16.80;58.60
13521;DHT22;6832;51.186;3.236;2023-03-26T04:10:59;16.80;58.60
13521;DHT22;6832;51.186;3.236;2023-03-26T04:13:27;16.80;58.60
13521;DHT22;6832;51.186;3.236;2023-03-26T04:15:54;16.80;58.50
13521;DHT22;6832;51.186;3.236;2023-03-26T04:18:21;16.80;58.60
13521;DHT22;6832;51.186;3.236;2023-03-26T04:20:48;16.80;58.60
13521;DHT22;6832;51.186;3.236;2023-03-26T04:23:16;16.80;58.60
13521;DHT22;6832;51.186;3.236;2023-03-26T04:25:45;16.80;58.60
13521;DHT22;6832;51.186;3.236;2023-03-26T04:28:27;16.80;58.60
13521;DHT22;6832;51.186;3.236;2023-03-26T04:30:57;16.80;58.60
13521;DHT22;6832;51.186;3.236;2023-03-26T04:33:27;16.80;58.60
13521;DHT22;6832;51.186;3.236;2023-03-26T04:35:54;16.80;58.60
13521;DHT22;6832;51.186;3.236;2023-03-26T04:38:28;16.70;58.50
13521;DHT22;6832;51.186;3.236;2023-03-26T04:40:58;16.70;58.50
13521;DHT22;6832;51.186;3.236;2023-03-26T04:43:28;16.70;58.50
13521;DHT22;6832;51.186;3.236;2023-03-26T04:45:56;16.80;58.60
13521;DHT22;6832;51.186;3.236;2023-03-26T04:48:27;16.70;58.50
13521;DHT22;6832;51.186;3.236;2023-03-26T04:50:55;16.70;58.50
13521;DHT22;6832;51.186;3.236;2023-03-26T04:53:22;16.70;58.50
13521;DHT22;6832;51.186;3.236;2023-03-26T04:55:54;16.70;58.50
13521;DHT22;6832;51.186;3.236;2023-03-26T04:58:21;16.70;58.50
13521;DHT22;6832;51.186;3.236;2023-03-26T05:00:58;16.70;58.50
13521;DHT22;6832;51.186;3.236;2023-03-26T05:03:27;16.70;58.50
13521;DHT22;6832;51.186;3.236;2023-03-26T05:05:56;16.70;58.60
13521;DHT22;6832;51.186;3.236;2023-03-26T05:08:24;16.70;58.50
13521;DHT22;6832;51.186;3.236;2023-03-26T05:10:53;16.70;58.50
13521;DHT22;6832;51.186;3.236;2023-03-26T05:13:20;16.70;58.50
13521;DHT22;6832;51.186;3.236;2023-03-26T05:15:47;16.70;58.50
13521;DHT22;6832;51.186;3.236;2023-03-26T05:18:15;16.70;58.50
13521;DHT22;6832;51.186;3.236;2023-03-26T05:20:42;16.70;58.50
13521;DHT22;6832;51.186;3.236;2023-03-26T05:23:09;16.70;58.60
13521;DHT22;6832;51.186;3.236;2023-03-26T05:25:36;16.70;58.50
13521;DHT22;6832;51.186;3.236;2023-03-26T05:28:04;16.70;58.50
13521;DHT22;6832;51.186;3.236;2023-03-26T05:30:31;16.70;58.50
13521;DHT22;6832;51.186;3.236;2023-03-26T05:32:58;16.70;58.60
13521;DHT22;6832;51.186;3.236;2023-03-26T05:35:31;16.70;58.60
13521;DHT22;6832;51.186;3.236;2023-03-26T05:37:58;16.70;58.60
13521;DHT22;6832;51.186;3.236;2023-03-26T05:40:25;16.70;58.60
13521;DHT22;6832;51.186;3.236;2023-03-26T05:42:52;16.70;58.60
13521;DHT22;6832;51.186;3.236;2023-03-26T05:45:20;16.70;58.60
13521;DHT22;6832;51.186;3.236;2023-03-26T05:47:47;16.70;58.60
13521;DHT22;6832;51.186;3.236;2023-03-26T05:50:18;16.70;58.60
13521;DHT22;6832;51.186;3.236;2023-03-26T05:52:47;16.70;58.50
13521;DHT22;6832;51.186;3.236;2023-03-26T05:55:14;16.70;58.50
13521;DHT22;6832;51.186;3.236;2023-03-26T05:57:43;16.70;58.60
13521;DHT22;6832;51.186;3.236;2023-03-26T06:00:10;16.70;58.50
13521;DHT22;6832;51.186;3.236;2023-03-26T06:02:37;16.70;58.60
13521;DHT22;6832;51.186;3.236;2023-03-26T06:05:07;16.70;58.50
13521;DHT22;6832;51.186;3.236;2023-03-26T06:07:34;16.70;58.50
13521;DHT22;6832;51.186;3.236;2023-03-26T06:10:03;16.70;58.50
13521;DHT22;6832;51.186;3.236;2023-03-26T06:12:30;16.70;58.50
13521;DHT22;6832;51.186;3.236;2023-03-26T06:14:57;16.70;58.50
13521;DHT22;6832;51.186;3.236;2023-03-26T06:17:24;16.70;58.50
13521;DHT22;6832;51.186;3.236;2023-03-26T06:19:51;16.70;58.50
13521;DHT22;6832;51.186;3.236;2023-03-26T06:22:18;16.70;58.50
13521;DHT22;6832;51.186;3.236;2023-03-26T06:24:45;16.70;58.50
13521;DHT22;6832;51.186;3.236;2023-03-26T06:27:13;16.70;58.50
13521;DHT22;6832;51.186;3.236;2023-03-26T06:29:41;16.70;58.50
13521;DHT22;6832;51.186;3.236;2023-03-26T06:32:08;16.70;58.50
13521;DHT22;6832;51.186;3.236;2023-03-26T06:34:35;16.70;58.50
13521;DHT22;6832;51.186;3.236;2023-03-26T06:37:01;16.60;58.40
13521;DHT22;6832;51.186;3.236;2023-03-26T06:39:28;16.60;58.40
13521;DHT22;6832;51.186;3.236;2023-03-26T06:41:55;16.70;58.40
13521;DHT22;6832;51.186;3.236;2023-03-26T06:44:23;16.60;58.40
13521;DHT22;6832;51.186;3.236;2023-03-26T06:46:52;16.60;58.40
13521;DHT22;6832;51.186;3.236;2023-03-26T06:49:18;16.60;58.30
13521;DHT22;6832;51.186;3.236;2023-03-26T06:51:46;16.70;58.40
13521;DHT22;6832;51.186;3.236;2023-03-26T06:54:16;16.70;58.40
13521;DHT22;6832;51.186;3.236;2023-03-26T06:56:43;16.60;58.40
13521;DHT22;6832;51.186;3.236;2023-03-26T06:59:10;16.60;58.40
13521;DHT22;6832;51.186;3.236;2023-03-26T07:01:38;16.60;58.40
13521;DHT22;6832;51.186;3.236;2023-03-26T07:04:05;16.60;58.40
13521;DHT22;6832;51.186;3.236;2023-03-26T07:06:32;16.60;58.40
13521;DHT22;6832;51.186;3.236;2023-03-26T07:08:59;16.60;58.40
13521;DHT22;6832;51.186;3.236;2023-03-26T07:11:26;16.70;58.40
13521;DHT22;6832;51.186;3.236;2023-03-26T07:13:54;16.60;58.40
13521;DHT22;6832;51.186;3.236;2023-03-26T07:16:21;16.60;58.40
13521;DHT22;6832;51.186;3.236;2023-03-26T07:18:50;16.60;58.40
13521;DHT22;6832;51.186;3.236;2023-03-26T07:21:22;16.60;58.30
13521;DHT22;6832;51.186;3.236;2023-03-26T07:23:49;16.60;58.40
13521;DHT22;6832;51.186;3.236;2023-03-26T07:26:24;16.60;58.40
13521;DHT22;6832;51.186;3.236;2023-03-26T07:28:58;16.50;58.30
13521;DHT22;6832;51.186;3.236;2023-03-26T07:31:30;16.60;58.40
13521;DHT22;6832;51.186;3.236;2023-03-26T07:34:06;16.50;58.30
13521;DHT22;6832;51.186;3.236;2023-03-26T07:36:44;16.60;58.40
13521;DHT22;6832;51.186;3.236;2023-03-26T07:39:21;16.60;58.40
13521;DHT22;6832;51.186;3.236;2023-03-26T07:41:58;16.50;58.30
13521;DHT22;6832;51.186;3.236;2023-03-26T07:44:44;16.60;58.40
13521;DHT22;6832;51.186;3.236;2023-03-26T07:47:21;16.60;58.40
13521;DHT22;6832;51.186;3.236;2023-03-26T07:49:54;16.50;58.30
13521;DHT22;6832;51.186;3.236;2023-03-26T07:52:22;16.50;58.30
13521;DHT22;6832;51.186;3.236;2023-03-26T07:54:50;16.50;58.40
13521;DHT22;6832;51.186;3.236;2023-03-26T07:57:23;16.50;58.40
13521;DHT22;6832;51.186;3.236;2023-03-26T07:59:56;16.50;58.40
13521;DHT22;6832;51.186;3.236;2023-03-26T08:02:38;16.50;58.40
13521;DHT22;6832;51.186;3.236;2023-03-26T08:05:14;16.50;58.70
13521;DHT22;6832;51.186;3.236;2023-03-26T08:07:55;16.50;58.40
13521;DHT22;6832;51.186;3.236;2023-03-26T08:10:28;16.50;58.40
13521;DHT22;6832;51.186;3.236;2023-03-26T08:13:23;16.50;58.40
13521;DHT22;6832;51.186;3.236;2023-03-26T08:16:00;16.50;58.40
13521;DHT22;6832;51.186;3.236;2023-03-26T08:18:42;16.50;58.40
13521;DHT22;6832;51.186;3.236;2023-03-26T08:21:16;16.50;58.40
13521;DHT22;6832;51.186;3.236;2023-03-26T08:23:53;16.50;58.40
13521;DHT22;6832;51.186;3.236;2023-03-26T08:26:30;16.50;58.40
13521;DHT22;6832;51.186;3.236;2023-03-26T08:29:05;16.50;58.40
13521;DHT22;6832;51.186;3.236;2023-03-26T08:31:45;16.40;58.30
13521;DHT22;6832;51.186;3.236;2023-03-26T08:34:13;16.40;58.30
13521;DHT22;6832;51.186;3.236;2023-03-26T08:36:42;16.50;58.40
13521;DHT22;6832;51.186;3.236;2023-03-26T08:39:09;16.50;58.40
13521;DHT22;6832;51.186;3.236;2023-03-26T08:44:59;16.40;58.30
13521;DHT22;6832;51.186;3.236;2023-03-26T08:54:14;16.50;58.40
13521;DHT22;6832;51.186;3.236;2023-03-26T08:57:03;16.50;58.40
13521;DHT22;6832;51.186;3.236;2023-03-26T09:03:10;16.40;58.40
13521;DHT22;6832;51.186;3.236;2023-03-26T09:06:33;16.40;58.40
13521;DHT22;6832;51.186;3.236;2023-03-26T09:09:44;16.40;58.40
13521;DHT22;6832;51.186;3.236;2023-03-26T09:22:16;16.50;58.50
13521;DHT22;6832;51.186;3.236;2023-03-26T09:25:18;16.40;58.50
13521;DHT22;6832;51.186;3.236;2023-03-26T09:31:28;16.40;58.50
13521;DHT22;6832;51.186;3.236;2023-03-26T09:34:21;16.40;58.60
13521;DHT22;6832;51.186;3.236;2023-03-26T09:36:54;16.40;58.60
13521;DHT22;6832;51.186;3.236;2023-03-26T09:39:34;16.40;58.60
13521;DHT22;6832;51.186;3.236;2023-03-26T09:42:20;16.40;58.60
13521;DHT22;6832;51.186;3.236;2023-03-26T09:45:30;16.40;58.60
13521;DHT22;6832;51.186;3.236;2023-03-26T09:48:22;16.40;58.60
13521;DHT22;6832;51.186;3.236;2023-03-26T09:50:59;16.40;58.60
13521;DHT22;6832;51.186;3.236;2023-03-26T09:53:58;16.40;58.60
13521;DHT22;6832;51.186;3.236;2023-03-26T09:56:40;16.40;58.70
13521;DHT22;6832;51.186;3.236;2023-03-26T09:59:23;16.40;58.70
13521;DHT22;6832;51.186;3.236;2023-03-26T10:01:57;16.40;58.70
13521;DHT22;6832;51.186;3.236;2023-03-26T10:04:58;16.40;58.70
13521;DHT22;6832;51.186;3.236;2023-03-26T10:07:59;16.40;58.80
13521;DHT22;6832;51.186;3.236;2023-03-26T10:10:51;16.50;58.90
13521;DHT22;6832;51.186;3.236;2023-03-26T10:13:31;16.60;58.90
13521;DHT22;6832;51.186;3.236;2023-03-26T10:22:47;16.40;58.70
13521;DHT22;6832;51.186;3.236;2023-03-26T10:25:30;16.50;58.80
13521;DHT22;6832;51.186;3.236;2023-03-26T10:28:21;16.50;58.80
13521;DHT22;6832;51.186;3.236;2023-03-26T10:31:31;16.50;58.80
13521;DHT22;6832;51.186;3.236;2023-03-26T10:34:08;16.50;58.80
13521;DHT22;6832;51.186;3.236;2023-03-26T10:39:59;16.50;58.90
13521;DHT22;6832;51.186;3.236;2023-03-26T10:42:43;16.50;58.90
13521;DHT22;6832;51.186;3.236;2023-03-26T10:45:27;16.50;59.50
13521;DHT22;6832;51.186;3.236;2023-03-26T10:51:45;16.50;58.90
13521;DHT22;6832;51.186;3.236;2023-03-26T10:54:24;16.50;58.90
13521;DHT22;6832;51.186;3.236;2023-03-26T10:56:54;16.50;58.90
13521;DHT22;6832;51.186;3.236;2023-03-26T10:59:24;16.60;58.90
13521;DHT22;6832;51.186;3.236;2023-03-26T11:02:02;16.50;58.90
13521;DHT22;6832;51.186;3.236;2023-03-26T11:04:36;16.60;59.00
13521;DHT22;6832;51.186;3.236;2023-03-26T11:07:15;16.60;59.00
13521;DHT22;6832;51.186;3.236;2023-03-26T11:10:05;16.60;59.00
13521;DHT22;6832;51.186;3.236;2023-03-26T11:12:40;16.60;58.90
13521;DHT22;6832;51.186;3.236;2023-03-26T11:15:20;16.70;59.00
13521;DHT22;6832;51.186;3.236;2023-03-26T11:17:57;16.60;59.00
13521;DHT22;6832;51.186;3.236;2023-03-26T11:20:34;16.60;59.00
13521;DHT22;6832;51.186;3.236;2023-03-26T11:23:21;16.60;59.00
13521;DHT22;6832;51.186;3.236;2023-03-26T11:27:15;16.70;59.10
13521;DHT22;6832;51.186;3.236;2023-03-26T11:29:40;16.60;59.00
13521;DHT22;6832;51.186;3.236;2023-03-26T11:32:34;16.70;59.00
13521;DHT22;6832;51.186;3.236;2023-03-26T11:35:08;16.70;59.00
13521;DHT22;6832;51.186;3.236;2023-03-26T11:37:42;16.70;59.00
13521;DHT22;6832;51.186;3.236;2023-03-26T11:40:13;16.70;59.00
13521;DHT22;6832;51.186;3.236;2023-03-26T11:43:05;16.70;59.00
13521;DHT22;6832;51.186;3.236;2023-03-26T11:45:54;16.70;59.00
13521;DHT22;6832;51.186;3.236;2023-03-26T11:48:24;16.70;59.00
13521;DHT22;6832;51.186;3.236;2023-03-26T11:50:55;16.70;59.00
13521;DHT22;6832;51.186;3.236;2023-03-26T11:53:30;16.70;59.20
13521;DHT22;6832;51.186;3.236;2023-03-26T11:56:01;16.60;59.20
13521;DHT22;6832;51.186;3.236;2023-03-26T11:58:32;16.70;59.20
13521;DHT22;6832;51.186;3.236;2023-03-26T12:01:12;16.70;59.10
13521;DHT22;6832;51.186;3.236;2023-03-26T12:03:40;16.70;59.10
13521;DHT22;6832;51.186;3.236;2023-03-26T12:06:21;16.70;59.00
13521;DHT22;6832;51.186;3.236;2023-03-26T12:08:50;16.70;59.00
13521;DHT22;6832;51.186;3.236;2023-03-26T12:11:18;16.70;59.00
13521;DHT22;6832;51.186;3.236;2023-03-26T12:13:51;16.80;59.10
13521;DHT22;6832;51.186;3.236;2023-03-26T12:16:21;16.80;59.10
13521;DHT22;6832;51.186;3.236;2023-03-26T12:18:58;16.80;59.00
13521;DHT22;6832;51.186;3.236;2023-03-26T12:21:42;16.80;59.10
13521;DHT22;6832;51.186;3.236;2023-03-26T12:24:28;16.80;59.10
13521;DHT22;6832;51.186;3.236;2023-03-26T12:27:18;16.80;59.10
13521;DHT22;6832;51.186;3.236;2023-03-26T12:29:50;16.80;59.10
13521;DHT22;6832;51.186;3.236;2023-03-26T12:32:26;16.80;59.00
13521;DHT22;6832;51.186;3.236;2023-03-26T12:35:05;16.90;59.10
13521;DHT22;6832;51.186;3.236;2023-03-26T12:37:35;16.80;59.10
13521;DHT22;6832;51.186;3.236;2023-03-26T12:40:08;16.80;59.00
13521;DHT22;6832;51.186;3.236;2023-03-26T12:42:53;16.80;59.10
13521;DHT22;6832;51.186;3.236;2023-03-26T12:45:28;16.80;59.10
13521;DHT22;6832;51.186;3.236;2023-03-26T12:47:58;16.80;59.10
13521;DHT22;6832;51.186;3.236;2023-03-26T12:50:41;16.80;59.10
13521;DHT22;6832;51.186;3.236;2023-03-26T12:53:42;16.80;59.20
13521;DHT22;6832;51.186;3.236;2023-03-26T12:56:27;16.70;59.10
13521;DHT22;6832;51.186;3.236;2023-03-26T13:02:16;16.90;59.20
13521;DHT22;6832;51.186;3.236;2023-03-26T13:05:08;16.90;59.30
13521;DHT22;6832;51.186;3.236;2023-03-26T13:07:56;16.80;59.20
13521;DHT22;6832;51.186;3.236;2023-03-26T13:10:47;16.80;59.20
13521;DHT22;6832;51.186;3.236;2023-03-26T13:13:37;16.80;59.70
13521;DHT22;6832;51.186;3.236;2023-03-26T13:16:18;16.80;59.20
13521;DHT22;6832;51.186;3.236;2023-03-26T13:18:52;16.80;59.20
13521;DHT22;6832;51.186;3.236;2023-03-26T13:21:30;17.00;59.30
13521;DHT22;6832;51.186;3.236;2023-03-26T13:24:07;16.80;59.20
13521;DHT22;6832;51.186;3.236;2023-03-26T13:26:49;16.80;59.20
13521;DHT22;6832;51.186;3.236;2023-03-26T13:29:26;16.80;59.20
13521;DHT22;6832;51.186;3.236;2023-03-26T13:32:04;16.90;59.20
13521;DHT22;6832;51.186;3.236;2023-03-26T13:34:39;16.90;59.20
13521;DHT22;6832;51.186;3.236;2023-03-26T13:37:14;16.90;59.20
13521;DHT22;6832;51.186;3.236;2023-03-26T13:39:54;16.90;59.20
13521;DHT22;6832;51.186;3.236;2023-03-26T13:42:41;16.80;59.20
13521;DHT22;6832;51.186;3.236;2023-03-26T13:45:20;16.90;59.20
13521;DHT22;6832;51.186;3.236;2023-03-26T13:47:53;16.90;59.30
13521;DHT22;6832;51.186;3.236;2023-03-26T13:50:25;16.90;59.20
13521;DHT22;6832;51.186;3.236;2023-03-26T13:53:04;16.90;59.20
13521;DHT22;6832;51.186;3.236;2023-03-26T13:55:34;16.90;59.90
13521;DHT22;6832;51.186;3.236;2023-03-26T13:58:11;16.90;59.20
13521;DHT22;6832;51.186;3.236;2023-03-26T14:00:50;16.80;59.20
13521;DHT22;6832;51.186;3.236;2023-03-26T14:03:24;16.90;59.20
13521;DHT22;6832;51.186;3.236;2023-03-26T14:05:56;16.90;59.30
13521;DHT22;6832;51.186;3.236;2023-03-26T14:08:38;16.90;59.20
13521;DHT22;6832;51.186;3.236;2023-03-26T14:11:10;16.90;59.30
13521;DHT22;6832;51.186;3.236;2023-03-26T14:13:43;16.90;59.20
13521;DHT22;6832;51.186;3.236;2023-03-26T14:16:14;16.90;59.30
13521;DHT22;6832;51.186;3.236;2023-03-26T14:18:46;16.90;59.30
13521;DHT22;6832;51.186;3.236;2023-03-26T14:24:41;16.90;59.30
13521;DHT22;6832;51.186;3.236;2023-03-26T14:27:35;16.90;59.30
13521;DHT22;6832;51.186;3.236;2023-03-26T14:30:27;16.90;59.30
13521;DHT22;6832;51.186;3.236;2023-03-26T14:33:17;16.90;59.30
13521;DHT22;6832;51.186;3.236;2023-03-26T14:35:58;16.90;59.30
13521;DHT22;6832;51.186;3.236;2023-03-26T14:38:52;16.90;59.30
13521;DHT22;6832;51.186;3.236;2023-03-26T14:41:28;16.90;59.30
13521;DHT22;6832;51.186;3.236;2023-03-26T14:44:23;16.90;59.30
13521;DHT22;6832;51.186;3.236;2023-03-26T14:47:12;16.90;59.30
13521;DHT22;6832;51.186;3.236;2023-03-26T14:52:47;16.90;59.30
13521;DHT22;6832;51.186;3.236;2023-03-26T14:55:39;16.90;59.30
13521;DHT22;6832;51.186;3.236;2023-03-26T15:01:23;16.90;59.30
13521;DHT22;6832;51.186;3.236;2023-03-26T15:04:21;16.90;59.30
13521;DHT22;6832;51.186;3.236;2023-03-26T15:07:27;16.90;59.30
13521;DHT22;6832;51.186;3.236;2023-03-26T15:13:17;17.00;59.30
13521;DHT22;6832;51.186;3.236;2023-03-26T15:19:48;16.90;59.20
13521;DHT22;6832;51.186;3.236;2023-03-26T15:25:51;16.90;59.80
13521;DHT22;6832;51.186;3.236;2023-03-26T15:28:55;16.90;59.20
13521;DHT22;6832;51.186;3.236;2023-03-26T15:35:04;16.90;59.20
13521;DHT22;6832;51.186;3.236;2023-03-26T15:41:03;16.90;59.20
13521;DHT22;6832;51.186;3.236;2023-03-26T15:44:05;16.90;59.20
13521;DHT22;6832;51.186;3.236;2023-03-26T15:46:55;16.90;59.20
13521;DHT22;6832;51.186;3.236;2023-03-26T15:49:29;16.80;59.10
13521;DHT22;6832;51.186;3.236;2023-03-26T15:52:08;16.90;59.10
13521;DHT22;6832;51.186;3.236;2023-03-26T15:54:46;16.90;59.10
13521;DHT22;6832;51.186;3.236;2023-03-26T15:57:24;16.80;59.00
13521;DHT22;6832;51.186;3.236;2023-03-26T16:00:26;16.90;59.10
13521;DHT22;6832;51.186;3.236;2023-03-26T16:03:15;16.80;59.00
13521;DHT22;6832;51.186;3.236;2023-03-26T16:08:43;16.80;59.00
13521;DHT22;6832;51.186;3.236;2023-03-26T16:11:41;16.80;59.00
13521;DHT22;6832;51.186;3.236;2023-03-26T16:14:10;16.80;59.00
13521;DHT22;6832;51.186;3.236;2023-03-26T16:16:50;16.80;59.00
13521;DHT22;6832;51.186;3.236;2023-03-26T16:19:49;16.80;59.00
13521;DHT22;6832;51.186;3.236;2023-03-26T16:22:43;16.80;59.00
13521;DHT22;6832;51.186;3.236;2023-03-26T16:25:26;16.80;59.00
13521;DHT22;6832;51.186;3.236;2023-03-26T16:28:24;16.80;59.00
13521;DHT22;6832;51.186;3.236;2023-03-26T16:31:20;16.80;58.90
13521;DHT22;6832;51.186;3.236;2023-03-26T16:33:52;16.80;58.90
13521;DHT22;6832;51.186;3.236;2023-03-26T16:36:33;16.80;58.90
13521;DHT22;6832;51.186;3.236;2023-03-26T16:39:18;16.80;58.90
13521;DHT22;6832;51.186;3.236;2023-03-26T16:42:18;16.80;58.90
13521;DHT22;6832;51.186;3.236;2023-03-26T16:45:09;16.80;58.90
13521;DHT22;6832;51.186;3.236;2023-03-26T16:47:59;16.70;58.70
13521;DHT22;6832;51.186;3.236;2023-03-26T16:50:45;16.70;58.70
13521;DHT22;6832;51.186;3.236;2023-03-26T16:53:23;16.80;58.80
13521;DHT22;6832;51.186;3.236;2023-03-26T16:55:58;16.80;58.70
13521;DHT22;6832;51.186;3.236;2023-03-26T16:58:31;16.70;58.70
13521;DHT22;6832;51.186;3.236;2023-03-26T17:01:06;16.70;58.60
13521;DHT22;6832;51.186;3.236;2023-03-26T17:03:42;16.70;58.70
13521;DHT22;6832;51.186;3.236;2023-03-26T17:06:30;16.70;58.70
13521;DHT22;6832;51.186;3.236;2023-03-26T17:09:16;16.70;58.60
13521;DHT22;6832;51.186;3.236;2023-03-26T17:11:52;16.70;58.60
13521;DHT22;6832;51.186;3.236;2023-03-26T17:14:30;16.70;58.60
13521;DHT22;6832;51.186;3.236;2023-03-26T17:17:15;16.70;58.60
13521;DHT22;6832;51.186;3.236;2023-03-26T17:19:52;16.70;58.60
13521;DHT22;6832;51.186;3.236;2023-03-26T17:22:33;16.70;58.60
13521;DHT22;6832;51.186;3.236;2023-03-26T17:28:10;16.70;58.50
13521;DHT22;6832;51.186;3.236;2023-03-26T17:31:03;16.60;58.40
13521;DHT22;6832;51.186;3.236;2023-03-26T17:33:32;16.60;58.40
13521;DHT22;6832;51.186;3.236;2023-03-26T17:36:35;16.60;58.50
13521;DHT22;6832;51.186;3.236;2023-03-26T17:42:38;16.60;58.40
13521;DHT22;6832;51.186;3.236;2023-03-26T17:45:27;16.60;58.40
13521;DHT22;6832;51.186;3.236;2023-03-26T17:47:59;16.60;58.40
13521;DHT22;6832;51.186;3.236;2023-03-26T17:50:31;16.60;58.40
13521;DHT22;6832;51.186;3.236;2023-03-26T17:53:00;16.50;58.30
13521;DHT22;6832;51.186;3.236;2023-03-26T17:55:30;16.50;58.30
13521;DHT22;6832;51.186;3.236;2023-03-26T17:58:00;16.50;58.30